sensor_id;sensor_type;location;lat;lon;timestamp;temperature;humidity
68480;DHT22;55469;48.934;12.050;2023-02-27T00:00:25;1.60;95.30
68480;DHT22;55469;48.934;12.050;2023-02-27T00:02:51;1.60;95.30
68480;DHT22;55469;48.934;12.050;2023-02-27T00:05:18;1.60;95.20
68480;DHT22;55469;48.934;12.050;2023-02-27T00:07:44;1.60;95.20
68480;DHT22;55469;48.934;12.050;2023-02-27T00:10:11;1.60;95.20
68480;DHT22;55469;48.934;12.050;2023-02-27T00:12:38;1.60;95.30
68480;DHT22;55469;48.934;12.050;2023-02-27T00:15:06;1.60;95.30
68480;DHT22;55469;48.934;12.050;2023-02-27T00:17:33;1.60;95.20
68480;DHT22;55469;48.934;12.050;2023-02-27T00:19:59;1.60;95.30
68480;DHT22;55469;48.934;12.050;2023-02-27T00:22:25;1.60;95.20
68480;DHT22;55469;48.934;12.050;2023-02-27T00:24:51;1.60;95.10
68480;DHT22;55469;48.934;12.050;2023-02-27T00:27:17;1.60;95.20
68480;DHT22;55469;48.934;12.050;2023-02-27T00:29:43;1.60;95.30
68480;DHT22;55469;48.934;12.050;2023-02-27T00:32:09;1.60;95.20
68480;DHT22;55469;48.934;12.050;2023-02-27T00:34:35;1.60;95.20
68480;DHT22;55469;48.934;12.050;2023-02-27T00:37:00;1.50;95.30
68480;DHT22;55469;48.934;12.050;2023-02-27T00:39:26;1.60;95.30
68480;DHT22;55469;48.934;12.050;2023-02-27T00:41:52;1.50;95.20
68480;DHT22;55469;48.934;12.050;2023-02-27T00:44:17;1.50;95.20
68480;DHT22;55469;48.934;12.050;2023-02-27T00:46:43;1.50;95.10
68480;DHT22;55469;48.934;12.050;2023-02-27T00:49:09;1.50;95.20
68480;DHT22;55469;48.934;12.050;2023-02-27T00:51:34;1.50;95.20
68480;DHT22;55469;48.934;12.050;2023-02-27T00:54:00;1.50;95.00
68480;DHT22;55469;48.934;12.050;2023-02-27T00:56:26;1.50;95.20
68480;DHT22;55469;48.934;12.050;2023-02-27T00:58:51;1.50;95.30
68480;DHT22;55469;48.934;12.050;2023-02-27T01:01:17;1.40;95.20
68480;DHT22;55469;48.934;12.050;2023-02-27T01:03:43;1.40;95.30
68480;DHT22;55469;48.934;12.050;2023-02-27T01:06:09;1.50;95.20
68480;DHT22;55469;48.934;12.050;2023-02-27T01:08:34;1.40;95.10
68480;DHT22;55469;48.934;12.050;2023-02-27T01:11:00;1.50;95.20
68480;DHT22;55469;48.934;12.050;2023-02-27T01:13:26;1.50;95.30
68480;DHT22;55469;48.934;12.050;2023-02-27T01:15:51;1.50;95.20
68480;DHT22;55469;48.934;12.050;2023-02-27T01:18:17;1.40;95.10
68480;DHT22;55469;48.934;12.050;2023-02-27T01:20:43;1.40;95.20
68480;DHT22;55469;48.934;12.050;2023-02-27T01:23:08;1.40;95.20
68480;DHT22;55469;48.934;12.050;2023-02-27T01:25:34;1.40;95.20
68480;DHT22;55469;48.934;12.050;2023-02-27T01:28:00;1.40;95.20
68480;DHT22;55469;48.934;12.050;2023-02-27T01:30:26;1.40;95.30
68480;DHT22;55469;48.934;12.050;2023-02-27T01:32:51;1.40;95.30
68480;DHT22;55469;48.934;12.050;2023-02-27T01:35:17;1.40;95.30
68480;DHT22;55469;48.934;12.050;2023-02-27T01:37:43;1.40;95.30
68480;DHT22;55469;48.934;12.050;2023-02-27T01:40:09;1.40;95.30
68480;DHT22;55469;48.934;12.050;2023-02-27T01:42:35;1.30;95.30
68480;DHT22;55469;48.934;12.050;2023-02-27T01:47:46;1.30;95.30
68480;DHT22;55469;48.934;12.050;2023-02-27T01:50:15;1.30;95.30
68480;DHT22;55469;48.934;12.050;2023-02-27T01:52:43;1.30;95.30
68480;DHT22;55469;48.934;12.050;2023-02-27T01:55:11;1.30;95.30
68480;DHT22;55469;48.934;12.050;2023-02-27T01:57:39;1.30;95.30
68480;DHT22;55469;48.934;12.050;2023-02-27T02:00:06;1.30;95.30
68480;DHT22;55469;48.934;12.050;2023-02-27T02:02:36;1.30;95.20
68480;DHT22;55469;48.934;12.050;2023-02-27T02:05:04;1.30;95.30
68480;DHT22;55469;48.934;12.050;2023-02-27T02:07:31;1.30;95.20
68480;DHT22;55469;48.934;12.050;2023-02-27T02:09:59;1.30;95.20
68480;DHT22;55469;48.934;12.050;2023-02-27T02:12:30;1.20;95.30
68480;DHT22;55469;48.934;12.050;2023-02-27T02:14:58;1.20;95.30
68480;DHT22;55469;48.934;12.050;2023-02-27T02:24:02;1.20;95.30
68480;DHT22;55469;48.934;12.050;2023-02-27T02:26:42;1.20;95.30
68480;DHT22;55469;48.934;12.050;2023-02-27T02:32:29;1.20;95.30
68480;DHT22;55469;48.934;12.050;2023-02-27T02:35:25;1.20;95.40
68480;DHT22;55469;48.934;12.050;2023-02-27T02:48:07;1.20;95.40
68480;DHT22;55469;48.934;12.050;2023-02-27T02:50:46;1.20;95.10
68480;DHT22;55469;48.934;12.050;2023-02-27T02:53:20;1.10;95.30
68480;DHT22;55469;48.934;12.050;2023-02-27T02:56:04;1.10;95.30
68480;DHT22;55469;48.934;12.050;2023-02-27T02:58:36;1.10;95.30
68480;DHT22;55469;48.934;12.050;2023-02-27T03:01:16;1.10;95.30
68480;DHT22;55469;48.934;12.050;2023-02-27T03:03:56;1.10;95.20
68480;DHT22;55469;48.934;12.050;2023-02-27T03:06:49;1.10;95.30
68480;DHT22;55469;48.934;12.050;2023-02-27T03:09:30;1.10;95.30
68480;DHT22;55469;48.934;12.050;2023-02-27T03:12:09;1.10;95.20
68480;DHT22;55469;48.934;12.050;2023-02-27T03:14:42;1.10;95.20
68480;DHT22;55469;48.934;12.050;2023-02-27T03:17:20;1.10;95.20
68480;DHT22;55469;48.934;12.050;2023-02-27T03:20:10;1.10;95.20
68480;DHT22;55469;48.934;12.050;2023-02-27T03:22:39;1.10;95.20
68480;DHT22;55469;48.934;12.050;2023-02-27T03:25:10;1.10;95.30
68480;DHT22;55469;48.934;12.050;2023-02-27T03:27:42;1.10;95.10
68480;DHT22;55469;48.934;12.050;2023-02-27T03:30:17;1.10;95.20
68480;DHT22;55469;48.934;12.050;2023-02-27T03:35:58;1.10;95.20
68480;DHT22;55469;48.934;12.050;2023-02-27T03:38:48;1.10;95.10
68480;DHT22;55469;48.934;12.050;2023-02-27T03:43:50;1.00;95.20
68480;DHT22;55469;48.934;12.050;2023-02-27T03:46:24;1.10;95.20
68480;DHT22;55469;48.934;12.050;2023-02-27T03:48:50;1.10;95.20
68480;DHT22;55469;48.934;12.050;2023-02-27T03:51:19;1.10;95.10
68480;DHT22;55469;48.934;12.050;2023-02-27T03:56:50;1.00;95.10
68480;DHT22;55469;48.934;12.050;2023-02-27T03:59:21;1.10;95.20
68480;DHT22;55469;48.934;12.050;2023-02-27T04:01:48;1.00;95.20
68480;DHT22;55469;48.934;12.050;2023-02-27T04:04:15;1.00;95.20
68480;DHT22;55469;48.934;12.050;2023-02-27T04:06:47;1.00;95.10
68480;DHT22;55469;48.934;12.050;2023-02-27T04:19:34;1.00;95.20
68480;DHT22;55469;48.934;12.050;2023-02-27T04:22:33;1.00;95.20
68480;DHT22;55469;48.934;12.050;2023-02-27T04:25:25;1.00;95.20
68480;DHT22;55469;48.934;12.050;2023-02-27T04:28:08;1.00;95.20
68480;DHT22;55469;48.934;12.050;2023-02-27T04:30:58;1.00;95.10
68480;DHT22;55469;48.934;12.050;2023-02-27T04:34:00;1.00;95.10
68480;DHT22;55469;48.934;12.050;2023-02-27T04:36:54;1.00;95.20
68480;DHT22;55469;48.934;12.050;2023-02-27T04:39:47;1.00;95.20
68480;DHT22;55469;48.934;12.050;2023-02-27T04:42:24;1.10;95.10
68480;DHT22;55469;48.934;12.050;2023-02-27T04:44:56;1.00;95.10
68480;DHT22;55469;48.934;12.050;2023-02-27T04:47:27;1.00;95.10
68480;DHT22;55469;48.934;12.050;2023-02-27T04:50:00;1.00;95.10
68480;DHT22;55469;48.934;12.050;2023-02-27T04:52:35;1.00;95.20
68480;DHT22;55469;48.934;12.050;2023-02-27T04:55:11;1.00;95.10
68480;DHT22;55469;48.934;12.050;2023-02-27T04:58:08;1.00;95.20
68480;DHT22;55469;48.934;12.050;2023-02-27T05:00:40;1.00;95.20
68480;DHT22;55469;48.934;12.050;2023-02-27T05:03:13;1.00;95.10
68480;DHT22;55469;48.934;12.050;2023-02-27T05:05:44;1.00;95.20
68480;DHT22;55469;48.934;12.050;2023-02-27T05:08:22;1.00;95.20
68480;DHT22;55469;48.934;12.050;2023-02-27T05:10:59;1.00;95.30
68480;DHT22;55469;48.934;12.050;2023-02-27T05:13:33;0.90;95.30
68480;DHT22;55469;48.934;12.050;2023-02-27T05:18:35;0.90;95.30
68480;DHT22;55469;48.934;12.050;2023-02-27T05:30:20;0.90;95.30
68480;DHT22;55469;48.934;12.050;2023-02-27T05:33:04;0.80;95.20
68480;DHT22;55469;48.934;12.050;2023-02-27T05:36:15;0.80;95.30
68480;DHT22;55469;48.934;12.050;2023-02-27T05:38:48;0.80;95.40
68480;DHT22;55469;48.934;12.050;2023-02-27T05:42:04;0.80;95.40
68480;DHT22;55469;48.934;12.050;2023-02-27T05:44:31;0.80;95.30
68480;DHT22;55469;48.934;12.050;2023-02-27T05:47:01;0.80;95.40
68480;DHT22;55469;48.934;12.050;2023-02-27T05:49:35;0.80;95.40
68480;DHT22;55469;48.934;12.050;2023-02-27T05:52:04;0.80;95.40
68480;DHT22;55469;48.934;12.050;2023-02-27T05:54:37;0.80;95.30
68480;DHT22;55469;48.934;12.050;2023-02-27T05:57:10;0.80;95.40
68480;DHT22;55469;48.934;12.050;2023-02-27T05:59:49;0.80;95.40
68480;DHT22;55469;48.934;12.050;2023-02-27T06:02:32;0.80;95.40
68480;DHT22;55469;48.934;12.050;2023-02-27T06:04:57;0.80;95.40
68480;DHT22;55469;48.934;12.050;2023-02-27T06:07:23;0.80;95.20
68480;DHT22;55469;48.934;12.050;2023-02-27T06:09:49;0.80;95.40
68480;DHT22;55469;48.934;12.050;2023-02-27T06:12:15;0.80;95.30
68480;DHT22;55469;48.934;12.050;2023-02-27T06:14:41;0.80;95.40
68480;DHT22;55469;48.934;12.050;2023-02-27T06:17:07;0.80;95.30
68480;DHT22;55469;48.934;12.050;2023-02-27T06:19:33;0.80;95.30
68480;DHT22;55469;48.934;12.050;2023-02-27T06:21:58;0.80;95.30
68480;DHT22;55469;48.934;12.050;2023-02-27T06:24:24;0.80;95.30
68480;DHT22;55469;48.934;12.050;2023-02-27T06:26:51;0.80;95.20
68480;DHT22;55469;48.934;12.050;2023-02-27T06:29:16;0.70;95.20
68480;DHT22;55469;48.934;12.050;2023-02-27T06:31:42;0.80;95.20
68480;DHT22;55469;48.934;12.050;2023-02-27T06:34:10;0.70;95.10
68480;DHT22;55469;48.934;12.050;2023-02-27T06:36:36;0.80;95.30
68480;DHT22;55469;48.934;12.050;2023-02-27T06:39:02;0.80;95.20
68480;DHT22;55469;48.934;12.050;2023-02-27T06:41:29;0.80;95.10
68480;DHT22;55469;48.934;12.050;2023-02-27T06:43:55;0.70;95.20
68480;DHT22;55469;48.934;12.050;2023-02-27T06:46:20;0.80;95.10
68480;DHT22;55469;48.934;12.050;2023-02-27T06:48:46;0.80;95.10
68480;DHT22;55469;48.934;12.050;2023-02-27T06:51:12;0.80;95.10
68480;DHT22;55469;48.934;12.050;2023-02-27T06:53:38;0.80;95.20
68480;DHT22;55469;48.934;12.050;2023-02-27T06:56:03;0.80;95.10
68480;DHT22;55469;48.934;12.050;2023-02-27T06:58:30;0.80;95.10
68480;DHT22;55469;48.934;12.050;2023-02-27T07:01:00;0.80;95.00
68480;DHT22;55469;48.934;12.050;2023-02-27T07:03:27;0.80;95.10
68480;DHT22;55469;48.934;12.050;2023-02-27T07:05:53;0.80;95.50
68480;DHT22;55469;48.934;12.050;2023-02-27T07:08:18;0.80;94.80
68480;DHT22;55469;48.934;12.050;2023-02-27T07:10:44;0.80;94.90
68480;DHT22;55469;48.934;12.050;2023-02-27T07:13:12;0.80;95.00
68480;DHT22;55469;48.934;12.050;2023-02-27T07:15:38;0.80;94.90
68480;DHT22;55469;48.934;12.050;2023-02-27T07:18:04;0.80;94.90
68480;DHT22;55469;48.934;12.050;2023-02-27T07:20:30;0.80;94.90
68480;DHT22;55469;48.934;12.050;2023-02-27T07:22:56;0.80;94.90
68480;DHT22;55469;48.934;12.050;2023-02-27T07:25:22;0.80;94.80
68480;DHT22;55469;48.934;12.050;2023-02-27T07:27:47;0.80;94.70
68480;DHT22;55469;48.934;12.050;2023-02-27T07:30:15;0.80;94.80
68480;DHT22;55469;48.934;12.050;2023-02-27T07:32:42;0.80;94.70
68480;DHT22;55469;48.934;12.050;2023-02-27T07:35:08;0.80;94.90
68480;DHT22;55469;48.934;12.050;2023-02-27T07:37:35;0.80;94.90
68480;DHT22;55469;48.934;12.050;2023-02-27T07:40:00;0.80;94.80
68480;DHT22;55469;48.934;12.050;2023-02-27T07:42:26;0.80;94.80
68480;DHT22;55469;48.934;12.050;2023-02-27T07:44:52;0.80;94.90
68480;DHT22;55469;48.934;12.050;2023-02-27T07:47:17;0.80;94.70
68480;DHT22;55469;48.934;12.050;2023-02-27T07:49:43;0.80;94.80
68480;DHT22;55469;48.934;12.050;2023-02-27T07:52:09;0.80;94.80
68480;DHT22;55469;48.934;12.050;2023-02-27T07:54:35;0.80;94.70
68480;DHT22;55469;48.934;12.050;2023-02-27T07:57:02;0.80;94.40
68480;DHT22;55469;48.934;12.050;2023-02-27T07:59:29;0.90;94.20
68480;DHT22;55469;48.934;12.050;2023-02-27T08:01:54;0.90;94.40
68480;DHT22;55469;48.934;12.050;2023-02-27T08:04:20;0.90;94.30
68480;DHT22;55469;48.934;12.050;2023-02-27T08:06:46;1.00;94.30
68480;DHT22;55469;48.934;12.050;2023-02-27T08:09:14;1.00;94.30
68480;DHT22;55469;48.934;12.050;2023-02-27T08:11:40;1.00;94.20
68480;DHT22;55469;48.934;12.050;2023-02-27T08:14:06;1.00;94.30
68480;DHT22;55469;48.934;12.050;2023-02-27T08:16:32;1.00;94.20
68480;DHT22;55469;48.934;12.050;2023-02-27T08:18:58;1.10;94.10
68480;DHT22;55469;48.934;12.050;2023-02-27T08:21:25;1.10;94.10
68480;DHT22;55469;48.934;12.050;2023-02-27T08:23:51;1.10;94.10
68480;DHT22;55469;48.934;12.050;2023-02-27T08:26:17;1.10;94.00
68480;DHT22;55469;48.934;12.050;2023-02-27T08:28:43;1.10;94.10
68480;DHT22;55469;48.934;12.050;2023-02-27T08:31:08;1.20;94.00
68480;DHT22;55469;48.934;12.050;2023-02-27T08:33:35;1.20;93.80
68480;DHT22;55469;48.934;12.050;2023-02-27T08:36:01;1.20;93.90
68480;DHT22;55469;48.934;12.050;2023-02-27T08:38:26;1.20;93.90
68480;DHT22;55469;48.934;12.050;2023-02-27T08:40:52;1.20;93.90
68480;DHT22;55469;48.934;12.050;2023-02-27T08:43:20;1.20;94.00
68480;DHT22;55469;48.934;12.050;2023-02-27T08:45:47;1.20;93.90
68480;DHT22;55469;48.934;12.050;2023-02-27T08:48:13;1.20;93.90
68480;DHT22;55469;48.934;12.050;2023-02-27T08:50:41;1.20;94.00
68480;DHT22;55469;48.934;12.050;2023-02-27T08:53:07;1.20;93.90
68480;DHT22;55469;48.934;12.050;2023-02-27T08:55:33;1.20;94.00
68480;DHT22;55469;48.934;12.050;2023-02-27T08:57:59;1.20;94.60
68480;DHT22;55469;48.934;12.050;2023-02-27T09:00:25;1.20;93.90
68480;DHT22;55469;48.934;12.050;2023-02-27T09:02:51;1.20;93.90
68480;DHT22;55469;48.934;12.050;2023-02-27T09:05:18;1.20;94.00
68480;DHT22;55469;48.934;12.050;2023-02-27T09:07:44;1.20;94.00
68480;DHT22;55469;48.934;12.050;2023-02-27T09:10:11;1.30;94.10
68480;DHT22;55469;48.934;12.050;2023-02-27T09:12:37;1.30;94.50
68480;DHT22;55469;48.934;12.050;2023-02-27T09:15:04;1.30;94.00
68480;DHT22;55469;48.934;12.050;2023-02-27T09:17:31;1.30;94.00
68480;DHT22;55469;48.934;12.050;2023-02-27T09:19:57;1.30;93.90
68480;DHT22;55469;48.934;12.050;2023-02-27T09:22:23;1.40;93.90
68480;DHT22;55469;48.934;12.050;2023-02-27T09:24:49;1.40;93.90
68480;DHT22;55469;48.934;12.050;2023-02-27T09:27:15;1.40;93.90
68480;DHT22;55469;48.934;12.050;2023-02-27T09:29:41;1.40;94.00
68480;DHT22;55469;48.934;12.050;2023-02-27T09:32:07;1.40;93.90
68480;DHT22;55469;48.934;12.050;2023-02-27T09:34:33;1.40;93.80
68480;DHT22;55469;48.934;12.050;2023-02-27T09:36:59;1.50;93.80
68480;DHT22;55469;48.934;12.050;2023-02-27T09:39:26;1.50;93.80
68480;DHT22;55469;48.934;12.050;2023-02-27T09:42:00;1.50;93.80
68480;DHT22;55469;48.934;12.050;2023-02-27T09:47:07;1.50;93.80
68480;DHT22;55469;48.934;12.050;2023-02-27T09:53:09;1.60;93.60
68480;DHT22;55469;48.934;12.050;2023-02-27T09:55:39;1.60;93.70
68480;DHT22;55469;48.934;12.050;2023-02-27T09:58:30;1.60;93.70
68480;DHT22;55469;48.934;12.050;2023-02-27T10:01:05;1.60;93.70
68480;DHT22;55469;48.934;12.050;2023-02-27T10:06:25;1.60;93.70
68480;DHT22;55469;48.934;12.050;2023-02-27T10:17:48;1.60;93.60
68480;DHT22;55469;48.934;12.050;2023-02-27T10:20:29;1.60;93.60
68480;DHT22;55469;48.934;12.050;2023-02-27T10:22:59;1.70;93.60
68480;DHT22;55469;48.934;12.050;2023-02-27T10:25:28;1.60;94.10
68480;DHT22;55469;48.934;12.050;2023-02-27T10:28:11;1.70;93.60
68480;DHT22;55469;48.934;12.050;2023-02-27T10:30:39;1.70;93.60
68480;DHT22;55469;48.934;12.050;2023-02-27T10:33:12;1.70;93.50
68480;DHT22;55469;48.934;12.050;2023-02-27T10:35:44;1.70;93.40
68480;DHT22;55469;48.934;12.050;2023-02-27T10:38:21;1.70;93.40
68480;DHT22;55469;48.934;12.050;2023-02-27T10:40:54;1.80;93.40
68480;DHT22;55469;48.934;12.050;2023-02-27T10:43:21;1.80;93.40
68480;DHT22;55469;48.934;12.050;2023-02-27T10:45:47;1.80;93.40
68480;DHT22;55469;48.934;12.050;2023-02-27T10:48:14;1.80;93.30
68480;DHT22;55469;48.934;12.050;2023-02-27T10:50:43;1.80;93.30
68480;DHT22;55469;48.934;12.050;2023-02-27T10:53:20;1.80;93.30
68480;DHT22;55469;48.934;12.050;2023-02-27T10:56:02;1.90;93.30
68480;DHT22;55469;48.934;12.050;2023-02-27T10:58:33;1.90;93.30
68480;DHT22;55469;48.934;12.050;2023-02-27T11:01:10;1.90;93.40
68480;DHT22;55469;48.934;12.050;2023-02-27T11:03:41;1.90;93.20
68480;DHT22;55469;48.934;12.050;2023-02-27T11:06:21;1.90;93.60
68480;DHT22;55469;48.934;12.050;2023-02-27T11:12:31;1.90;93.10
68480;DHT22;55469;48.934;12.050;2023-02-27T11:15:15;2.00;93.20
68480;DHT22;55469;48.934;12.050;2023-02-27T11:17:50;2.00;93.20
68480;DHT22;55469;48.934;12.050;2023-02-27T11:20:36;2.00;93.20
68480;DHT22;55469;48.934;12.050;2023-02-27T11:23:09;2.00;93.10
68480;DHT22;55469;48.934;12.050;2023-02-27T11:25:39;2.00;93.20
68480;DHT22;55469;48.934;12.050;2023-02-27T11:28:17;2.00;93.10
68480;DHT22;55469;48.934;12.050;2023-02-27T11:33:27;2.00;93.10
68480;DHT22;55469;48.934;12.050;2023-02-27T11:35:55;2.00;93.10
68480;DHT22;55469;48.934;12.050;2023-02-27T11:38:24;2.10;93.10
68480;DHT22;55469;48.934;12.050;2023-02-27T11:41:00;2.10;93.00
68480;DHT22;55469;48.934;12.050;2023-02-27T11:43:39;2.10;93.00
68480;DHT22;55469;48.934;12.050;2023-02-27T11:46:12;2.10;93.00
68480;DHT22;55469;48.934;12.050;2023-02-27T11:48:51;2.10;92.90
68480;DHT22;55469;48.934;12.050;2023-02-27T11:57:24;2.20;92.90
68480;DHT22;55469;48.934;12.050;2023-02-27T11:59:54;2.10;92.90
68480;DHT22;55469;48.934;12.050;2023-02-27T12:05:29;2.20;92.90
68480;DHT22;55469;48.934;12.050;2023-02-27T12:08:32;2.20;92.90
68480;DHT22;55469;48.934;12.050;2023-02-27T12:11:15;2.20;92.80
68480;DHT22;55469;48.934;12.050;2023-02-27T12:13:51;2.20;92.90
68480;DHT22;55469;48.934;12.050;2023-02-27T12:16:29;2.20;92.80
68480;DHT22;55469;48.934;12.050;2023-02-27T12:19:03;2.20;92.90
68480;DHT22;55469;48.934;12.050;2023-02-27T12:22:03;2.20;92.90
68480;DHT22;55469;48.934;12.050;2023-02-27T12:24:37;2.30;92.80
68480;DHT22;55469;48.934;12.050;2023-02-27T12:27:22;2.30;92.80
68480;DHT22;55469;48.934;12.050;2023-02-27T12:30:16;2.30;92.80
68480;DHT22;55469;48.934;12.050;2023-02-27T12:32:49;2.30;92.80
68480;DHT22;55469;48.934;12.050;2023-02-27T12:37:47;2.30;92.70
68480;DHT22;55469;48.934;12.050;2023-02-27T12:40:15;2.30;92.70
68480;DHT22;55469;48.934;12.050;2023-02-27T12:49:00;2.40;92.70
68480;DHT22;55469;48.934;12.050;2023-02-27T13:01:02;2.40;92.60
68480;DHT22;55469;48.934;12.050;2023-02-27T13:03:49;2.40;92.50
68480;DHT22;55469;48.934;12.050;2023-02-27T13:12:57;2.50;92.30
68480;DHT22;55469;48.934;12.050;2023-02-27T13:15:40;2.50;92.10
68480;DHT22;55469;48.934;12.050;2023-02-27T13:24:27;2.50;92.20
68480;DHT22;55469;48.934;12.050;2023-02-27T13:26:59;2.50;92.20
68480;DHT22;55469;48.934;12.050;2023-02-27T13:29:43;2.50;92.20
68480;DHT22;55469;48.934;12.050;2023-02-27T13:32:28;2.60;92.10
68480;DHT22;55469;48.934;12.050;2023-02-27T13:37:58;2.60;92.10
68480;DHT22;55469;48.934;12.050;2023-02-27T13:40:40;2.60;92.10
68480;DHT22;55469;48.934;12.050;2023-02-27T13:43:35;2.60;92.10
68480;DHT22;55469;48.934;12.050;2023-02-27T13:46:03;2.60;92.10
68480;DHT22;55469;48.934;12.050;2023-02-27T13:48:43;2.60;92.00
68480;DHT22;55469;48.934;12.050;2023-02-27T13:56:46;2.60;92.20
68480;DHT22;55469;48.934;12.050;2023-02-27T14:04:45;2.60;92.10
68480;DHT22;55469;48.934;12.050;2023-02-27T14:07:15;2.60;92.10
68480;DHT22;55469;48.934;12.050;2023-02-27T14:09:47;2.60;92.10
68480;DHT22;55469;48.934;12.050;2023-02-27T14:12:32;2.60;92.00
68480;DHT22;55469;48.934;12.050;2023-02-27T14:15:05;2.70;92.00
68480;DHT22;55469;48.934;12.050;2023-02-27T14:17:39;2.70;91.90
68480;DHT22;55469;48.934;12.050;2023-02-27T14:23:19;2.70;91.90
68480;DHT22;55469;48.934;12.050;2023-02-27T14:26:13;2.70;92.10
68480;DHT22;55469;48.934;12.050;2023-02-27T14:28:49;2.70;92.10
68480;DHT22;55469;48.934;12.050;2023-02-27T14:31:31;2.70;92.10
68480;DHT22;55469;48.934;12.050;2023-02-27T14:33:59;2.70;92.10
68480;DHT22;55469;48.934;12.050;2023-02-27T14:36:45;2.70;92.60
68480;DHT22;55469;48.934;12.050;2023-02-27T14:39:20;2.70;92.00
68480;DHT22;55469;48.934;12.050;2023-02-27T14:45:22;2.70;91.80
68480;DHT22;55469;48.934;12.050;2023-02-27T14:47:50;2.70;92.00
68480;DHT22;55469;48.934;12.050;2023-02-27T14:50:32;2.70;92.00
68480;DHT22;55469;48.934;12.050;2023-02-27T14:53:01;2.80;91.90
68480;DHT22;55469;48.934;12.050;2023-02-27T14:55:30;2.70;91.80
68480;DHT22;55469;48.934;12.050;2023-02-27T15:03:24;2.80;91.60
68480;DHT22;55469;48.934;12.050;2023-02-27T15:05:54;2.80;91.80
68480;DHT22;55469;48.934;12.050;2023-02-27T15:08:28;2.70;91.80
68480;DHT22;55469;48.934;12.050;2023-02-27T15:10:56;2.70;91.90
68480;DHT22;55469;48.934;12.050;2023-02-27T15:13:32;2.70;91.80
68480;DHT22;55469;48.934;12.050;2023-02-27T15:16:20;2.70;91.80
68480;DHT22;55469;48.934;12.050;2023-02-27T15:18:51;2.70;92.00
68480;DHT22;55469;48.934;12.050;2023-02-27T15:21:23;2.70;92.50
68480;DHT22;55469;48.934;12.050;2023-02-27T15:26:30;2.70;92.10
68480;DHT22;55469;48.934;12.050;2023-02-27T15:28:59;2.70;92.00
68480;DHT22;55469;48.934;12.050;2023-02-27T15:31:26;2.70;92.10
68480;DHT22;55469;48.934;12.050;2023-02-27T15:33:55;2.70;92.10
68480;DHT22;55469;48.934;12.050;2023-02-27T15:36:27;2.70;92.10
68480;DHT22;55469;48.934;12.050;2023-02-27T15:39:11;2.70;92.00
68480;DHT22;55469;48.934;12.050;2023-02-27T15:42:02;2.70;92.20
68480;DHT22;55469;48.934;12.050;2023-02-27T15:44:39;2.70;92.00
68480;DHT22;55469;48.934;12.050;2023-02-27T15:47:09;2.70;92.20
68480;DHT22;55469;48.934;12.050;2023-02-27T15:49:37;2.70;92.10
68480;DHT22;55469;48.934;12.050;2023-02-27T15:52:22;2.70;92.10
68480;DHT22;55469;48.934;12.050;2023-02-27T15:55:00;2.70;92.20
68480;DHT22;55469;48.934;12.050;2023-02-27T15:57:31;2.70;92.20
68480;DHT22;55469;48.934;12.050;2023-02-27T15:59:59;2.70;92.30
68480;DHT22;55469;48.934;12.050;2023-02-27T16:02:31;2.70;92.30
68480;DHT22;55469;48.934;12.050;2023-02-27T16:05:04;2.70;92.30
68480;DHT22;55469;48.934;12.050;2023-02-27T16:07:37;2.70;92.40
68480;DHT22;55469;48.934;12.050;2023-02-27T16:10:08;2.70;92.40
68480;DHT22;55469;48.934;12.050;2023-02-27T16:12:42;2.70;92.50
68480;DHT22;55469;48.934;12.050;2023-02-27T16:15:33;2.70;92.40
68480;DHT22;55469;48.934;12.050;2023-02-27T16:18:04;2.70;92.50
68480;DHT22;55469;48.934;12.050;2023-02-27T16:20:52;2.70;92.60
68480;DHT22;55469;48.934;12.050;2023-02-27T16:23:26;2.70;92.50
68480;DHT22;55469;48.934;12.050;2023-02-27T16:28:51;2.70;92.50
68480;DHT22;55469;48.934;12.050;2023-02-27T16:31:34;2.60;92.50
68480;DHT22;55469;48.934;12.050;2023-02-27T16:34:36;2.60;92.40
68480;DHT22;55469;48.934;12.050;2023-02-27T16:37:22;2.70;92.60
68480;DHT22;55469;48.934;12.050;2023-02-27T16:39:51;2.60;92.50
68480;DHT22;55469;48.934;12.050;2023-02-27T16:42:18;2.60;92.40
68480;DHT22;55469;48.934;12.050;2023-02-27T16:44:44;2.60;92.40
68480;DHT22;55469;48.934;12.050;2023-02-27T16:47:10;2.60;92.50
68480;DHT22;55469;48.934;12.050;2023-02-27T16:49:37;2.60;92.60
68480;DHT22;55469;48.934;12.050;2023-02-27T16:52:09;2.60;92.60
68480;DHT22;55469;48.934;12.050;2023-02-27T16:54:35;2.60;92.60
68480;DHT22;55469;48.934;12.050;2023-02-27T16:57:01;2.60;92.50
68480;DHT22;55469;48.934;12.050;2023-02-27T16:59:35;2.60;92.60
68480;DHT22;55469;48.934;12.050;2023-02-27T17:02:05;2.60;92.50
68480;DHT22;55469;48.934;12.050;2023-02-27T17:04:34;2.60;93.20
68480;DHT22;55469;48.934;12.050;2023-02-27T17:07:01;2.50;92.70
68480;DHT22;55469;48.934;12.050;2023-02-27T17:09:28;2.50;92.70
68480;DHT22;55469;48.934;12.050;2023-02-27T17:11:54;2.50;92.70
68480;DHT22;55469;48.934;12.050;2023-02-27T17:14:22;2.50;92.80
68480;DHT22;55469;48.934;12.050;2023-02-27T17:16:48;2.50;92.80
68480;DHT22;55469;48.934;12.050;2023-02-27T17:19:14;2.50;92.70
68480;DHT22;55469;48.934;12.050;2023-02-27T17:21:40;2.50;92.80
68480;DHT22;55469;48.934;12.050;2023-02-27T17:24:06;2.50;92.80
68480;DHT22;55469;48.934;12.050;2023-02-27T17:26:33;2.50;92.80
68480;DHT22;55469;48.934;12.050;2023-02-27T17:28:59;2.50;92.90
68480;DHT22;55469;48.934;12.050;2023-02-27T17:31:27;2.50;92.80
68480;DHT22;55469;48.934;12.050;2023-02-27T17:33:53;2.40;92.70
68480;DHT22;55469;48.934;12.050;2023-02-27T17:36:19;2.40;92.80
68480;DHT22;55469;48.934;12.050;2023-02-27T17:38:57;2.40;92.90
68480;DHT22;55469;48.934;12.050;2023-02-27T17:41:24;2.40;92.90
68480;DHT22;55469;48.934;12.050;2023-02-27T17:43:52;2.40;93.00
68480;DHT22;55469;48.934;12.050;2023-02-27T17:46:20;2.40;92.90
68480;DHT22;55469;48.934;12.050;2023-02-27T17:48:47;2.40;92.80
68480;DHT22;55469;48.934;12.050;2023-02-27T17:51:14;2.40;92.70
68480;DHT22;55469;48.934;12.050;2023-02-27T17:53:41;2.40;92.90
68480;DHT22;55469;48.934;12.050;2023-02-27T17:56:08;2.40;92.70
68480;DHT22;55469;48.934;12.050;2023-02-27T17:58:34;2.30;92.90
68480;DHT22;55469;48.934;12.050;2023-02-27T18:01:05;2.30;93.00
68480;DHT22;55469;48.934;12.050;2023-02-27T18:03:32;2.40;92.90
68480;DHT22;55469;48.934;12.050;2023-02-27T18:05:58;2.30;92.90
68480;DHT22;55469;48.934;12.050;2023-02-27T18:08:24;2.30;93.00
68480;DHT22;55469;48.934;12.050;2023-02-27T18:10:50;2.30;93.00
68480;DHT22;55469;48.934;12.050;2023-02-27T18:13:17;2.30;93.10
68480;DHT22;55469;48.934;12.050;2023-02-27T18:15:46;2.30;93.10
68480;DHT22;55469;48.934;12.050;2023-02-27T18:18:12;2.30;93.00
68480;DHT22;55469;48.934;12.050;2023-02-27T18:20:38;2.30;92.90
68480;DHT22;55469;48.934;12.050;2023-02-27T18:23:07;2.30;93.10
68480;DHT22;55469;48.934;12.050;2023-02-27T18:25:34;2.30;93.10